Aviation Digital Data Service (ADDS)

Output produced by TAFs form (2028 UTC 20 July 2017)
found at http://www.aviationweather.gov/adds/tafs/
 
Forecast for: RJSF (FUKUSHIMA ARPT , JP)
Text: TAF RJSF 201706Z 2018/2200 20010KT 9999 FEW020 SCT040
Forecast period: 1800 UTC 20 July 2017 to 0000 UTC 22 July 2017
Forecast type: FROM: standard forecast or significant change
Winds: from the SSW (200 degrees) at 12 MPH (10 knots; 5.2 m/s)
Visibility: 6 or more miles (10+ km)
Clouds: few clouds at 2000 feet AGL
scattered clouds at 4000 feet AGL
Weather: no significant weather forecast for this period
Text: TEMPO 2018/2023 4000 BR FEW005 BKN008
Forecast period: 1800 to 2300 UTC 20 July 2017
Forecast type: TEMPORARY: The following changes expected for less than half the time period
Visibility: 2.49 miles (4.01 km)
Ceiling: 800 feet AGL
Clouds: few clouds at 500 feet AGL
broken clouds at 800 feet AGL
Weather: BR  (mist)
Text: TEMPO 2118/2200 4000 BR FEW005 BKN008
Forecast period: 1800 UTC 21 July 2017 to 0000 UTC 22 July 2017
Forecast type: TEMPORARY: The following changes expected for less than half the time period
Visibility: 2.49 miles (4.01 km)
Ceiling: 800 feet AGL
Clouds: few clouds at 500 feet AGL
broken clouds at 800 feet AGL
Weather: BR  (mist)